sensor_id;sensor_type;location;lat;lon;timestamp;temperature;humidity
52034;DHT22;38045;52.988;6.536;2024-03-08T00:00:17;1.70;72.50
52034;DHT22;38045;52.988;6.536;2024-03-08T00:02:45;1.70;72.50
52034;DHT22;38045;52.988;6.536;2024-03-08T00:05:11;1.60;72.40
52034;DHT22;38045;52.988;6.536;2024-03-08T00:07:40;1.60;72.50
52034;DHT22;38045;52.988;6.536;2024-03-08T00:10:08;1.60;72.40
52034;DHT22;38045;52.988;6.536;2024-03-08T00:12:40;1.60;72.50
52034;DHT22;38045;52.988;6.536;2024-03-08T00:15:14;1.60;72.50
52034;DHT22;38045;52.988;6.536;2024-03-08T00:17:41;1.60;72.60
52034;DHT22;38045;52.988;6.536;2024-03-08T00:20:07;1.50;72.60
52034;DHT22;38045;52.988;6.536;2024-03-08T00:22:36;1.50;72.50
52034;DHT22;38045;52.988;6.536;2024-03-08T00:25:02;1.50;72.50
52034;DHT22;38045;52.988;6.536;2024-03-08T00:27:28;1.50;72.50
52034;DHT22;38045;52.988;6.536;2024-03-08T00:29:56;1.50;72.70
52034;DHT22;38045;52.988;6.536;2024-03-08T00:32:21;1.50;72.70
52034;DHT22;38045;52.988;6.536;2024-03-08T00:34:49;1.50;72.70
52034;DHT22;38045;52.988;6.536;2024-03-08T00:37:17;1.40;72.60
52034;DHT22;38045;52.988;6.536;2024-03-08T00:39:43;1.50;72.70
52034;DHT22;38045;52.988;6.536;2024-03-08T00:42:09;1.50;72.70
52034;DHT22;38045;52.988;6.536;2024-03-08T00:44:34;1.40;72.60
52034;DHT22;38045;52.988;6.536;2024-03-08T00:47:00;1.40;72.80
52034;DHT22;38045;52.988;6.536;2024-03-08T00:49:25;1.40;72.60
52034;DHT22;38045;52.988;6.536;2024-03-08T00:51:51;1.40;72.70
52034;DHT22;38045;52.988;6.536;2024-03-08T00:54:17;1.40;72.70
52034;DHT22;38045;52.988;6.536;2024-03-08T00:56:42;1.40;72.70
52034;DHT22;38045;52.988;6.536;2024-03-08T00:59:08;1.40;72.70
52034;DHT22;38045;52.988;6.536;2024-03-08T01:01:33;1.40;72.80
52034;DHT22;38045;52.988;6.536;2024-03-08T01:03:59;1.40;72.80
52034;DHT22;38045;52.988;6.536;2024-03-08T01:06:25;1.40;72.80
52034;DHT22;38045;52.988;6.536;2024-03-08T01:08:50;1.40;72.80
52034;DHT22;38045;52.988;6.536;2024-03-08T01:11:17;1.40;72.70
52034;DHT22;38045;52.988;6.536;2024-03-08T01:13:43;1.30;72.80
52034;DHT22;38045;52.988;6.536;2024-03-08T01:16:09;1.30;72.90
52034;DHT22;38045;52.988;6.536;2024-03-08T01:18:35;1.30;72.70
52034;DHT22;38045;52.988;6.536;2024-03-08T01:21:01;1.30;72.90
52034;DHT22;38045;52.988;6.536;2024-03-08T01:23:26;1.20;72.90
52034;DHT22;38045;52.988;6.536;2024-03-08T01:25:52;1.20;72.80
52034;DHT22;38045;52.988;6.536;2024-03-08T01:28:23;1.20;72.90
52034;DHT22;38045;52.988;6.536;2024-03-08T01:30:49;1.30;72.80
52034;DHT22;38045;52.988;6.536;2024-03-08T01:33:24;1.20;72.80
52034;DHT22;38045;52.988;6.536;2024-03-08T01:35:53;1.20;72.80
52034;DHT22;38045;52.988;6.536;2024-03-08T01:38:20;1.20;73.00
52034;DHT22;38045;52.988;6.536;2024-03-08T01:40:49;1.20;73.00
52034;DHT22;38045;52.988;6.536;2024-03-08T01:43:33;1.20;73.10
52034;DHT22;38045;52.988;6.536;2024-03-08T01:45:58;1.10;73.00
52034;DHT22;38045;52.988;6.536;2024-03-08T01:48:28;1.20;72.90
52034;DHT22;38045;52.988;6.536;2024-03-08T01:50:55;1.20;72.90
52034;DHT22;38045;52.988;6.536;2024-03-08T01:53:22;1.20;72.90
52034;DHT22;38045;52.988;6.536;2024-03-08T01:55:48;1.20;72.90
52034;DHT22;38045;52.988;6.536;2024-03-08T01:58:15;1.20;73.00
52034;DHT22;38045;52.988;6.536;2024-03-08T02:00:43;1.10;72.90
52034;DHT22;38045;52.988;6.536;2024-03-08T02:03:09;1.10;72.90
52034;DHT22;38045;52.988;6.536;2024-03-08T02:05:36;1.00;73.00
52034;DHT22;38045;52.988;6.536;2024-03-08T02:08:04;1.10;73.00
52034;DHT22;38045;52.988;6.536;2024-03-08T02:10:33;1.00;73.00
52034;DHT22;38045;52.988;6.536;2024-03-08T02:13:01;1.00;73.10
52034;DHT22;38045;52.988;6.536;2024-03-08T02:15:26;1.00;72.90
52034;DHT22;38045;52.988;6.536;2024-03-08T02:17:52;1.00;73.00
52034;DHT22;38045;52.988;6.536;2024-03-08T02:20:19;1.00;73.00
52034;DHT22;38045;52.988;6.536;2024-03-08T02:22:45;1.00;72.90
52034;DHT22;38045;52.988;6.536;2024-03-08T02:25:11;1.00;72.90
52034;DHT22;38045;52.988;6.536;2024-03-08T02:27:37;1.00;73.00
52034;DHT22;38045;52.988;6.536;2024-03-08T02:30:03;1.00;72.80
52034;DHT22;38045;52.988;6.536;2024-03-08T02:32:30;1.00;73.00
52034;DHT22;38045;52.988;6.536;2024-03-08T02:34:58;1.00;72.90
52034;DHT22;38045;52.988;6.536;2024-03-08T02:37:25;1.00;72.80
52034;DHT22;38045;52.988;6.536;2024-03-08T02:39:50;0.90;72.90
52034;DHT22;38045;52.988;6.536;2024-03-08T02:42:16;0.90;73.00
52034;DHT22;38045;52.988;6.536;2024-03-08T02:44:43;0.90;73.00
52034;DHT22;38045;52.988;6.536;2024-03-08T02:47:12;0.90;73.00
52034;DHT22;38045;52.988;6.536;2024-03-08T02:49:37;0.90;72.90
52034;DHT22;38045;52.988;6.536;2024-03-08T02:52:04;0.80;72.90
52034;DHT22;38045;52.988;6.536;2024-03-08T02:54:30;0.80;73.00
52034;DHT22;38045;52.988;6.536;2024-03-08T02:56:56;0.80;73.00
52034;DHT22;38045;52.988;6.536;2024-03-08T02:59:21;0.80;73.00
52034;DHT22;38045;52.988;6.536;2024-03-08T03:01:47;0.80;72.90
52034;DHT22;38045;52.988;6.536;2024-03-08T03:04:13;0.80;72.80
52034;DHT22;38045;52.988;6.536;2024-03-08T03:06:38;0.80;72.90
52034;DHT22;38045;52.988;6.536;2024-03-08T03:09:04;0.80;73.00
52034;DHT22;38045;52.988;6.536;2024-03-08T03:11:32;0.80;73.00
52034;DHT22;38045;52.988;6.536;2024-03-08T03:13:57;0.80;72.90
52034;DHT22;38045;52.988;6.536;2024-03-08T03:16:23;0.80;72.90
52034;DHT22;38045;52.988;6.536;2024-03-08T03:18:49;0.80;72.80
52034;DHT22;38045;52.988;6.536;2024-03-08T03:21:15;0.80;72.70
52034;DHT22;38045;52.988;6.536;2024-03-08T03:23:41;0.70;72.80
52034;DHT22;38045;52.988;6.536;2024-03-08T03:26:09;0.60;72.90
52034;DHT22;38045;52.988;6.536;2024-03-08T03:28:38;0.60;73.00
52034;DHT22;38045;52.988;6.536;2024-03-08T03:31:07;0.60;73.00
52034;DHT22;38045;52.988;6.536;2024-03-08T03:33:32;0.60;73.00
52034;DHT22;38045;52.988;6.536;2024-03-08T03:35:59;0.60;72.90
52034;DHT22;38045;52.988;6.536;2024-03-08T03:38:26;0.60;72.90
52034;DHT22;38045;52.988;6.536;2024-03-08T03:40:53;0.60;73.00
52034;DHT22;38045;52.988;6.536;2024-03-08T03:43:25;0.60;73.00
52034;DHT22;38045;52.988;6.536;2024-03-08T03:45:51;0.60;72.90
52034;DHT22;38045;52.988;6.536;2024-03-08T03:48:17;0.60;72.90
52034;DHT22;38045;52.988;6.536;2024-03-08T03:50:42;0.60;72.90
52034;DHT22;38045;52.988;6.536;2024-03-08T03:53:08;0.50;72.90
52034;DHT22;38045;52.988;6.536;2024-03-08T03:55:37;0.50;72.90
52034;DHT22;38045;52.988;6.536;2024-03-08T03:58:04;0.50;72.90
52034;DHT22;38045;52.988;6.536;2024-03-08T04:00:29;0.50;73.00
52034;DHT22;38045;52.988;6.536;2024-03-08T04:02:55;0.50;73.00
52034;DHT22;38045;52.988;6.536;2024-03-08T04:05:24;0.50;73.00
52034;DHT22;38045;52.988;6.536;2024-03-08T04:07:49;0.50;72.80
52034;DHT22;38045;52.988;6.536;2024-03-08T04:10:15;0.40;72.80
52034;DHT22;38045;52.988;6.536;2024-03-08T04:12:41;0.40;72.80
52034;DHT22;38045;52.988;6.536;2024-03-08T04:15:07;0.40;72.90
52034;DHT22;38045;52.988;6.536;2024-03-08T04:17:33;0.40;73.00
52034;DHT22;38045;52.988;6.536;2024-03-08T04:20:03;0.40;73.00
52034;DHT22;38045;52.988;6.536;2024-03-08T04:22:34;0.40;72.90
52034;DHT22;38045;52.988;6.536;2024-03-08T04:25:01;0.40;72.80
52034;DHT22;38045;52.988;6.536;2024-03-08T04:27:27;0.40;72.80
52034;DHT22;38045;52.988;6.536;2024-03-08T04:29:53;0.40;72.90
52034;DHT22;38045;52.988;6.536;2024-03-08T04:32:18;0.40;72.80
52034;DHT22;38045;52.988;6.536;2024-03-08T04:34:44;0.40;72.70
52034;DHT22;38045;52.988;6.536;2024-03-08T04:37:09;0.40;72.70
52034;DHT22;38045;52.988;6.536;2024-03-08T04:39:39;0.30;72.80
52034;DHT22;38045;52.988;6.536;2024-03-08T04:42:05;0.30;72.90
52034;DHT22;38045;52.988;6.536;2024-03-08T04:44:36;0.30;72.80
52034;DHT22;38045;52.988;6.536;2024-03-08T04:47:03;0.30;72.80
52034;DHT22;38045;52.988;6.536;2024-03-08T04:49:28;0.40;72.80
52034;DHT22;38045;52.988;6.536;2024-03-08T04:51:54;0.30;72.80
52034;DHT22;38045;52.988;6.536;2024-03-08T04:54:19;0.40;72.80
52034;DHT22;38045;52.988;6.536;2024-03-08T04:56:45;0.40;72.70
52034;DHT22;38045;52.988;6.536;2024-03-08T04:59:11;0.40;72.70
52034;DHT22;38045;52.988;6.536;2024-03-08T05:01:37;0.40;72.70
52034;DHT22;38045;52.988;6.536;2024-03-08T05:04:03;0.30;72.60
52034;DHT22;38045;52.988;6.536;2024-03-08T05:06:29;0.30;72.60
52034;DHT22;38045;52.988;6.536;2024-03-08T05:08:55;0.30;72.70
52034;DHT22;38045;52.988;6.536;2024-03-08T05:11:21;0.30;72.60
52034;DHT22;38045;52.988;6.536;2024-03-08T05:13:47;0.30;72.60
52034;DHT22;38045;52.988;6.536;2024-03-08T05:16:12;0.30;72.70
52034;DHT22;38045;52.988;6.536;2024-03-08T05:18:41;0.30;72.70
52034;DHT22;38045;52.988;6.536;2024-03-08T05:21:07;0.30;72.70
52034;DHT22;38045;52.988;6.536;2024-03-08T05:23:34;0.30;72.60
52034;DHT22;38045;52.988;6.536;2024-03-08T05:26:00;0.20;72.60
52034;DHT22;38045;52.988;6.536;2024-03-08T05:28:26;0.20;72.60
52034;DHT22;38045;52.988;6.536;2024-03-08T05:30:52;0.20;72.60
52034;DHT22;38045;52.988;6.536;2024-03-08T05:33:17;0.20;72.70
52034;DHT22;38045;52.988;6.536;2024-03-08T05:35:44;0.20;72.60
52034;DHT22;38045;52.988;6.536;2024-03-08T05:38:10;0.20;72.60
52034;DHT22;38045;52.988;6.536;2024-03-08T05:40:38;0.10;72.60
52034;DHT22;38045;52.988;6.536;2024-03-08T05:43:03;0.10;72.60
52034;DHT22;38045;52.988;6.536;2024-03-08T05:45:29;0.10;72.60
52034;DHT22;38045;52.988;6.536;2024-03-08T05:47:55;0.10;72.60
52034;DHT22;38045;52.988;6.536;2024-03-08T05:50:20;0.10;72.60
52034;DHT22;38045;52.988;6.536;2024-03-08T05:52:46;0.10;72.60
52034;DHT22;38045;52.988;6.536;2024-03-08T05:55:13;0.00;72.50
52034;DHT22;38045;52.988;6.536;2024-03-08T05:57:40;0.10;72.60
52034;DHT22;38045;52.988;6.536;2024-03-08T06:00:06;0.10;72.50
52034;DHT22;38045;52.988;6.536;2024-03-08T06:02:32;0.00;72.50
52034;DHT22;38045;52.988;6.536;2024-03-08T06:04:58;0.00;72.50
52034;DHT22;38045;52.988;6.536;2024-03-08T06:07:24;0.00;72.50
52034;DHT22;38045;52.988;6.536;2024-03-08T06:09:49;0.00;72.60
52034;DHT22;38045;52.988;6.536;2024-03-08T06:12:15;0.10;72.60
52034;DHT22;38045;52.988;6.536;2024-03-08T06:14:45;0.10;72.50
52034;DHT22;38045;52.988;6.536;2024-03-08T06:17:11;0.10;72.50
52034;DHT22;38045;52.988;6.536;2024-03-08T06:19:37;0.10;72.50
52034;DHT22;38045;52.988;6.536;2024-03-08T06:22:02;0.10;72.50
52034;DHT22;38045;52.988;6.536;2024-03-08T06:24:31;0.10;72.50
52034;DHT22;38045;52.988;6.536;2024-03-08T06:26:57;0.10;72.50
52034;DHT22;38045;52.988;6.536;2024-03-08T06:29:22;0.10;72.60
52034;DHT22;38045;52.988;6.536;2024-03-08T06:31:49;0.10;72.50
52034;DHT22;38045;52.988;6.536;2024-03-08T06:34:15;0.10;72.50
52034;DHT22;38045;52.988;6.536;2024-03-08T06:36:41;0.10;72.50
52034;DHT22;38045;52.988;6.536;2024-03-08T06:39:06;0.00;72.50
52034;DHT22;38045;52.988;6.536;2024-03-08T06:41:36;0.00;72.50
52034;DHT22;38045;52.988;6.536;2024-03-08T06:44:03;0.10;72.60
52034;DHT22;38045;52.988;6.536;2024-03-08T06:46:28;0.20;72.60
52034;DHT22;38045;52.988;6.536;2024-03-08T06:48:54;0.20;72.60
52034;DHT22;38045;52.988;6.536;2024-03-08T06:51:20;0.30;72.50
52034;DHT22;38045;52.988;6.536;2024-03-08T06:53:46;0.30;72.50
52034;DHT22;38045;52.988;6.536;2024-03-08T06:56:12;0.40;72.40
52034;DHT22;38045;52.988;6.536;2024-03-08T06:58:37;0.40;72.40
52034;DHT22;38045;52.988;6.536;2024-03-08T07:01:03;0.40;72.30
52034;DHT22;38045;52.988;6.536;2024-03-08T07:03:32;0.50;72.40
52034;DHT22;38045;52.988;6.536;2024-03-08T07:05:58;0.50;72.30
52034;DHT22;38045;52.988;6.536;2024-03-08T07:08:24;0.50;72.10
52034;DHT22;38045;52.988;6.536;2024-03-08T07:10:50;0.60;72.20
52034;DHT22;38045;52.988;6.536;2024-03-08T07:13:15;0.60;72.30
52034;DHT22;38045;52.988;6.536;2024-03-08T07:15:43;0.60;72.20
52034;DHT22;38045;52.988;6.536;2024-03-08T07:18:08;0.70;72.10
52034;DHT22;38045;52.988;6.536;2024-03-08T07:20:34;0.80;72.00
52034;DHT22;38045;52.988;6.536;2024-03-08T07:23:00;0.80;72.10
52034;DHT22;38045;52.988;6.536;2024-03-08T07:25:26;0.90;72.10
52034;DHT22;38045;52.988;6.536;2024-03-08T07:27:55;1.00;72.20
52034;DHT22;38045;52.988;6.536;2024-03-08T07:30:22;1.00;71.80
52034;DHT22;38045;52.988;6.536;2024-03-08T07:33:20;1.00;72.00
52034;DHT22;38045;52.988;6.536;2024-03-08T07:35:48;1.00;71.80
52034;DHT22;38045;52.988;6.536;2024-03-08T07:38:15;1.10;71.80
52034;DHT22;38045;52.988;6.536;2024-03-08T07:40:42;1.20;71.90
52034;DHT22;38045;52.988;6.536;2024-03-08T07:43:10;1.20;71.70
52034;DHT22;38045;52.988;6.536;2024-03-08T07:45:39;1.30;71.60
52034;DHT22;38045;52.988;6.536;2024-03-08T07:48:06;1.40;71.50
52034;DHT22;38045;52.988;6.536;2024-03-08T07:50:38;1.40;71.60
52034;DHT22;38045;52.988;6.536;2024-03-08T07:53:05;1.50;71.60
52034;DHT22;38045;52.988;6.536;2024-03-08T07:55:32;1.60;71.30
52034;DHT22;38045;52.988;6.536;2024-03-08T07:57:58;1.60;71.10
52034;DHT22;38045;52.988;6.536;2024-03-08T08:00:24;1.60;71.10
52034;DHT22;38045;52.988;6.536;2024-03-08T08:02:53;1.70;70.90
52034;DHT22;38045;52.988;6.536;2024-03-08T08:05:19;1.80;71.10
52034;DHT22;38045;52.988;6.536;2024-03-08T08:07:45;1.80;70.90
52034;DHT22;38045;52.988;6.536;2024-03-08T08:10:12;1.90;70.90
52034;DHT22;38045;52.988;6.536;2024-03-08T08:12:44;2.00;70.80
52034;DHT22;38045;52.988;6.536;2024-03-08T08:15:09;2.10;69.90
52034;DHT22;38045;52.988;6.536;2024-03-08T08:17:35;2.10;69.80
52034;DHT22;38045;52.988;6.536;2024-03-08T08:20:01;2.20;70.80
52034;DHT22;38045;52.988;6.536;2024-03-08T08:22:30;2.30;70.00
52034;DHT22;38045;52.988;6.536;2024-03-08T08:24:56;2.40;69.80
52034;DHT22;38045;52.988;6.536;2024-03-08T08:27:22;2.40;70.00
52034;DHT22;38045;52.988;6.536;2024-03-08T08:29:47;2.50;70.00
52034;DHT22;38045;52.988;6.536;2024-03-08T08:32:15;2.50;70.10
52034;DHT22;38045;52.988;6.536;2024-03-08T08:34:40;2.70;70.00
52034;DHT22;38045;52.988;6.536;2024-03-08T08:37:07;2.80;69.60
52034;DHT22;38045;52.988;6.536;2024-03-08T08:39:35;2.80;69.00
52034;DHT22;38045;52.988;6.536;2024-03-08T08:42:00;2.90;69.70
52034;DHT22;38045;52.988;6.536;2024-03-08T08:44:28;3.00;68.20
52034;DHT22;38045;52.988;6.536;2024-03-08T08:46:53;3.00;67.40
52034;DHT22;38045;52.988;6.536;2024-03-08T08:49:19;3.00;68.60
52034;DHT22;38045;52.988;6.536;2024-03-08T08:51:52;3.10;67.80
52034;DHT22;38045;52.988;6.536;2024-03-08T08:54:18;3.10;68.10
52034;DHT22;38045;52.988;6.536;2024-03-08T08:56:44;3.10;68.90
52034;DHT22;38045;52.988;6.536;2024-03-08T08:59:10;3.30;69.00
52034;DHT22;38045;52.988;6.536;2024-03-08T09:01:39;3.30;68.00
52034;DHT22;38045;52.988;6.536;2024-03-08T09:04:05;3.30;67.80
52034;DHT22;38045;52.988;6.536;2024-03-08T09:06:31;3.30;68.10
52034;DHT22;38045;52.988;6.536;2024-03-08T09:08:57;3.50;67.50
52034;DHT22;38045;52.988;6.536;2024-03-08T09:11:23;3.50;67.10
52034;DHT22;38045;52.988;6.536;2024-03-08T09:13:50;3.60;66.20
52034;DHT22;38045;52.988;6.536;2024-03-08T09:16:16;3.60;65.80
52034;DHT22;38045;52.988;6.536;2024-03-08T09:18:42;3.70;66.70
52034;DHT22;38045;52.988;6.536;2024-03-08T09:21:07;3.60;65.60
52034;DHT22;38045;52.988;6.536;2024-03-08T09:23:35;3.70;65.20
52034;DHT22;38045;52.988;6.536;2024-03-08T09:26:01;3.60;65.00
52034;DHT22;38045;52.988;6.536;2024-03-08T09:28:28;3.60;65.30
52034;DHT22;38045;52.988;6.536;2024-03-08T09:30:54;3.60;65.00
52034;DHT22;38045;52.988;6.536;2024-03-08T09:33:20;3.70;64.70
52034;DHT22;38045;52.988;6.536;2024-03-08T09:35:47;3.70;66.30
52034;DHT22;38045;52.988;6.536;2024-03-08T09:38:14;3.70;65.20
52034;DHT22;38045;52.988;6.536;2024-03-08T09:40:43;3.90;65.20
52034;DHT22;38045;52.988;6.536;2024-03-08T09:43:12;4.00;66.00
52034;DHT22;38045;52.988;6.536;2024-03-08T09:45:40;4.10;66.10
52034;DHT22;38045;52.988;6.536;2024-03-08T09:48:10;4.10;64.90
52034;DHT22;38045;52.988;6.536;2024-03-08T09:50:38;4.20;64.70
52034;DHT22;38045;52.988;6.536;2024-03-08T09:53:04;4.30;65.60
52034;DHT22;38045;52.988;6.536;2024-03-08T09:55:35;4.40;65.20
52034;DHT22;38045;52.988;6.536;2024-03-08T09:58:05;4.50;65.10
52034;DHT22;38045;52.988;6.536;2024-03-08T10:00:50;4.50;64.30
52034;DHT22;38045;52.988;6.536;2024-03-08T10:03:15;4.60;64.80
52034;DHT22;38045;52.988;6.536;2024-03-08T10:05:41;4.70;65.50
52034;DHT22;38045;52.988;6.536;2024-03-08T10:08:07;5.00;63.70
52034;DHT22;38045;52.988;6.536;2024-03-08T10:10:39;5.00;64.40
52034;DHT22;38045;52.988;6.536;2024-03-08T10:13:09;5.10;63.70
52034;DHT22;38045;52.988;6.536;2024-03-08T10:15:36;5.10;63.00
52034;DHT22;38045;52.988;6.536;2024-03-08T10:18:02;5.30;63.70
52034;DHT22;38045;52.988;6.536;2024-03-08T10:20:30;5.50;63.50
52034;DHT22;38045;52.988;6.536;2024-03-08T10:23:00;5.60;62.50
52034;DHT22;38045;52.988;6.536;2024-03-08T10:25:26;5.70;62.60
52034;DHT22;38045;52.988;6.536;2024-03-08T10:27:51;5.90;63.30
52034;DHT22;38045;52.988;6.536;2024-03-08T10:30:17;5.90;61.90
52034;DHT22;38045;52.988;6.536;2024-03-08T10:32:47;6.10;63.10
52034;DHT22;38045;52.988;6.536;2024-03-08T10:35:14;6.20;62.60
52034;DHT22;38045;52.988;6.536;2024-03-08T10:37:48;6.20;63.60
52034;DHT22;38045;52.988;6.536;2024-03-08T10:40:19;6.20;61.40
52034;DHT22;38045;52.988;6.536;2024-03-08T10:42:59;6.20;60.50
52034;DHT22;38045;52.988;6.536;2024-03-08T10:45:35;6.30;60.80
52034;DHT22;38045;52.988;6.536;2024-03-08T10:50:44;6.50;62.30
52034;DHT22;38045;52.988;6.536;2024-03-08T10:53:14;6.70;62.20
52034;DHT22;38045;52.988;6.536;2024-03-08T10:55:40;6.90;62.70
52034;DHT22;38045;52.988;6.536;2024-03-08T10:58:06;7.20;63.80
52034;DHT22;38045;52.988;6.536;2024-03-08T11:00:34;7.20;59.50
52034;DHT22;38045;52.988;6.536;2024-03-08T11:03:02;7.20;61.20
52034;DHT22;38045;52.988;6.536;2024-03-08T11:05:39;7.20;60.00
52034;DHT22;38045;52.988;6.536;2024-03-08T11:10:48;7.00;60.50
52034;DHT22;38045;52.988;6.536;2024-03-08T11:13:41;7.10;62.00
52034;DHT22;38045;52.988;6.536;2024-03-08T11:16:36;7.30;61.00
52034;DHT22;38045;52.988;6.536;2024-03-08T11:21:36;7.50;59.00
52034;DHT22;38045;52.988;6.536;2024-03-08T11:24:11;7.60;58.70
52034;DHT22;38045;52.988;6.536;2024-03-08T11:26:37;7.80;59.30
52034;DHT22;38045;52.988;6.536;2024-03-08T11:32:09;8.00;59.70
52034;DHT22;38045;52.988;6.536;2024-03-08T11:34:39;8.00;59.30
52034;DHT22;38045;52.988;6.536;2024-03-08T11:37:10;8.00;59.70
52034;DHT22;38045;52.988;6.536;2024-03-08T11:39:39;8.10;57.90
52034;DHT22;38045;52.988;6.536;2024-03-08T11:42:05;8.20;60.20
52034;DHT22;38045;52.988;6.536;2024-03-08T11:44:32;8.40;59.80
52034;DHT22;38045;52.988;6.536;2024-03-08T11:46:57;8.60;58.30
52034;DHT22;38045;52.988;6.536;2024-03-08T11:49:23;8.80;60.00
52034;DHT22;38045;52.988;6.536;2024-03-08T11:51:52;8.90;58.60
52034;DHT22;38045;52.988;6.536;2024-03-08T11:54:22;8.80;57.80
52034;DHT22;38045;52.988;6.536;2024-03-08T11:56:50;8.60;57.90
52034;DHT22;38045;52.988;6.536;2024-03-08T11:59:16;8.60;57.70
52034;DHT22;38045;52.988;6.536;2024-03-08T12:02:02;8.60;57.80
52034;DHT22;38045;52.988;6.536;2024-03-08T12:04:29;8.60;57.40
52034;DHT22;38045;52.988;6.536;2024-03-08T12:06:54;8.60;56.40
52034;DHT22;38045;52.988;6.536;2024-03-08T12:09:20;8.60;57.20
52034;DHT22;38045;52.988;6.536;2024-03-08T12:11:50;8.80;58.00
52034;DHT22;38045;52.988;6.536;2024-03-08T12:14:16;8.90;57.00
52034;DHT22;38045;52.988;6.536;2024-03-08T12:16:43;9.00;58.20
52034;DHT22;38045;52.988;6.536;2024-03-08T12:19:09;9.20;56.90
52034;DHT22;38045;52.988;6.536;2024-03-08T12:21:36;9.20;57.30
52034;DHT22;38045;52.988;6.536;2024-03-08T12:24:03;9.40;56.20
52034;DHT22;38045;52.988;6.536;2024-03-08T12:26:29;9.50;55.80
52034;DHT22;38045;52.988;6.536;2024-03-08T12:29:17;9.70;55.90
52034;DHT22;38045;52.988;6.536;2024-03-08T12:31:46;9.80;56.00
52034;DHT22;38045;52.988;6.536;2024-03-08T12:34:12;9.80;56.00
52034;DHT22;38045;52.988;6.536;2024-03-08T12:36:47;9.80;54.20
52034;DHT22;38045;52.988;6.536;2024-03-08T12:39:17;9.70;53.50
52034;DHT22;38045;52.988;6.536;2024-03-08T12:41:51;9.70;55.70
52034;DHT22;38045;52.988;6.536;2024-03-08T12:44:20;10.00;54.70
52034;DHT22;38045;52.988;6.536;2024-03-08T12:46:47;10.10;55.50
52034;DHT22;38045;52.988;6.536;2024-03-08T12:49:13;10.30;53.50
52034;DHT22;38045;52.988;6.536;2024-03-08T12:51:43;10.30;55.10
52034;DHT22;38045;52.988;6.536;2024-03-08T12:54:09;10.30;54.10
52034;DHT22;38045;52.988;6.536;2024-03-08T12:56:35;10.40;55.10
52034;DHT22;38045;52.988;6.536;2024-03-08T12:59:05;10.30;54.10
52034;DHT22;38045;52.988;6.536;2024-03-08T13:01:31;10.20;54.50
52034;DHT22;38045;52.988;6.536;2024-03-08T13:03:58;10.00;53.50
52034;DHT22;38045;52.988;6.536;2024-03-08T13:06:24;9.80;54.60
52034;DHT22;38045;52.988;6.536;2024-03-08T13:08:50;9.70;55.00
52034;DHT22;38045;52.988;6.536;2024-03-08T13:11:17;9.90;53.10
52034;DHT22;38045;52.988;6.536;2024-03-08T13:13:44;10.00;54.50
52034;DHT22;38045;52.988;6.536;2024-03-08T13:16:10;10.00;54.40
52034;DHT22;38045;52.988;6.536;2024-03-08T13:18:38;10.00;53.70
52034;DHT22;38045;52.988;6.536;2024-03-08T13:21:04;10.20;55.20
52034;DHT22;38045;52.988;6.536;2024-03-08T13:23:31;10.20;54.20
52034;DHT22;38045;52.988;6.536;2024-03-08T13:25:56;10.20;53.30
52034;DHT22;38045;52.988;6.536;2024-03-08T13:28:23;10.20;52.60
52034;DHT22;38045;52.988;6.536;2024-03-08T13:30:53;10.20;55.10
52034;DHT22;38045;52.988;6.536;2024-03-08T13:33:19;10.30;53.40
52034;DHT22;38045;52.988;6.536;2024-03-08T13:35:45;10.40;52.90
52034;DHT22;38045;52.988;6.536;2024-03-08T13:38:12;10.50;53.80
52034;DHT22;38045;52.988;6.536;2024-03-08T13:40:39;10.60;54.40
52034;DHT22;38045;52.988;6.536;2024-03-08T13:43:06;10.70;52.30
52034;DHT22;38045;52.988;6.536;2024-03-08T13:45:34;10.50;52.60
52034;DHT22;38045;52.988;6.536;2024-03-08T13:48:03;10.60;52.70
52034;DHT22;38045;52.988;6.536;2024-03-08T13:50:30;10.60;52.70
52034;DHT22;38045;52.988;6.536;2024-03-08T13:52:56;10.50;52.20
52034;DHT22;38045;52.988;6.536;2024-03-08T13:55:22;10.50;53.00
52034;DHT22;38045;52.988;6.536;2024-03-08T13:57:48;10.70;53.20
52034;DHT22;38045;52.988;6.536;2024-03-08T14:00:14;10.80;52.00
52034;DHT22;38045;52.988;6.536;2024-03-08T14:02:40;10.80;51.50
52034;DHT22;38045;52.988;6.536;2024-03-08T14:05:09;10.70;51.50
52034;DHT22;38045;52.988;6.536;2024-03-08T14:07:36;10.60;52.00
52034;DHT22;38045;52.988;6.536;2024-03-08T14:10:02;10.60;52.20
52034;DHT22;38045;52.988;6.536;2024-03-08T14:12:28;10.50;51.50
52034;DHT22;38045;52.988;6.536;2024-03-08T14:14:55;10.40;51.80
52034;DHT22;38045;52.988;6.536;2024-03-08T14:17:25;10.60;52.10
52034;DHT22;38045;52.988;6.536;2024-03-08T14:19:52;10.60;52.50
52034;DHT22;38045;52.988;6.536;2024-03-08T14:22:18;10.70;52.20
52034;DHT22;38045;52.988;6.536;2024-03-08T14:24:43;10.90;52.30
52034;DHT22;38045;52.988;6.536;2024-03-08T14:27:10;11.20;51.60
52034;DHT22;38045;52.988;6.536;2024-03-08T14:29:38;11.40;50.40
52034;DHT22;38045;52.988;6.536;2024-03-08T14:32:05;11.70;50.70
52034;DHT22;38045;52.988;6.536;2024-03-08T14:34:32;12.50;50.60
52034;DHT22;38045;52.988;6.536;2024-03-08T14:36:59;13.10;50.70
52034;DHT22;38045;52.988;6.536;2024-03-08T14:39:26;13.90;49.30
52034;DHT22;38045;52.988;6.536;2024-03-08T14:41:57;14.40;47.20
52034;DHT22;38045;52.988;6.536;2024-03-08T14:44:24;14.80;48.20
52034;DHT22;38045;52.988;6.536;2024-03-08T14:46:52;15.00;49.00
52034;DHT22;38045;52.988;6.536;2024-03-08T14:49:18;15.50;48.50
52034;DHT22;38045;52.988;6.536;2024-03-08T14:51:44;15.80;45.10
52034;DHT22;38045;52.988;6.536;2024-03-08T14:54:10;15.80;47.00
52034;DHT22;38045;52.988;6.536;2024-03-08T14:56:36;15.60;48.30
52034;DHT22;38045;52.988;6.536;2024-03-08T14:59:02;15.20;48.90
52034;DHT22;38045;52.988;6.536;2024-03-08T15:01:30;14.90;49.70
52034;DHT22;38045;52.988;6.536;2024-03-08T15:03:58;14.40;48.50
52034;DHT22;38045;52.988;6.536;2024-03-08T15:06:29;14.00;49.70
52034;DHT22;38045;52.988;6.536;2024-03-08T15:08:56;13.60;47.70
52034;DHT22;38045;52.988;6.536;2024-03-08T15:11:23;13.10;48.00
52034;DHT22;38045;52.988;6.536;2024-03-08T15:13:50;12.50;50.30
52034;DHT22;38045;52.988;6.536;2024-03-08T15:16:19;12.00;49.40
52034;DHT22;38045;52.988;6.536;2024-03-08T15:18:46;11.50;49.30
52034;DHT22;38045;52.988;6.536;2024-03-08T15:21:15;11.00;50.00
52034;DHT22;38045;52.988;6.536;2024-03-08T15:23:45;10.70;50.40
52034;DHT22;38045;52.988;6.536;2024-03-08T15:26:16;10.50;51.60
52034;DHT22;38045;52.988;6.536;2024-03-08T15:28:42;10.40;51.70
52034;DHT22;38045;52.988;6.536;2024-03-08T15:31:10;10.50;52.70
52034;DHT22;38045;52.988;6.536;2024-03-08T15:33:38;10.80;52.00
52034;DHT22;38045;52.988;6.536;2024-03-08T15:36:16;11.20;52.80
52034;DHT22;38045;52.988;6.536;2024-03-08T15:38:42;11.50;51.80
52034;DHT22;38045;52.988;6.536;2024-03-08T15:41:13;11.40;49.80
52034;DHT22;38045;52.988;6.536;2024-03-08T15:43:42;11.30;51.20
52034;DHT22;38045;52.988;6.536;2024-03-08T15:46:09;11.50;50.20
52034;DHT22;38045;52.988;6.536;2024-03-08T15:48:35;11.60;50.30
52034;DHT22;38045;52.988;6.536;2024-03-08T15:51:02;11.70;51.60
52034;DHT22;38045;52.988;6.536;2024-03-08T15:53:33;11.70;50.60